.
WxDataArchive / Data Records for 2010-09-26
2010-09-25 September 2010 2010-09-27

Data Records for Sunday, 26 September 2010

Time	Temp	Chill	HIndex	Humid	Dewpt	 Wind 	HiWind	WindDir	Rain 	Barom 
-----	----	-----	------	-----	-----	------	------	-------	-----	----- 
00:00	53.5	53.5	53.5	75	45.8	0	0	---	0.00	30.102 
00:05	53.5	53.5	53.5	76	46.1	0	0	---	0.00	30.102 
00:10	53.3	53.3	53.3	76	45.9	0	0	---	0.00	30.102 
00:15	53.3	53.3	53.3	76	45.9	0	1	338	0.00	30.103 
00:20	53.3	53.3	53.3	77	46.3	0	0	---	0.00	30.103 
00:25	53.2	53.2	53.2	77	46.2	0	0	---	0.00	30.103 
00:30	53.2	53.2	53.2	77	46.2	0	0	---	0.00	30.103 
00:35	53.2	53.2	53.2	77	46.2	0	0	---	0.00	30.103 
00:40	53.2	53.2	53.2	78	46.5	0	0	---	0.00	30.103 
00:45	53.2	53.2	53.2	78	46.5	0	0	---	0.00	30.098 
00:50	53.1	53.1	53.1	78	46.4	0	0	---	0.00	30.098 
00:55	53.1	53.1	53.1	78	46.4	0	0	---	0.00	30.098 
01:00	53.1	53.1	53.1	79	46.8	0	0	---	0.00	30.102 
01:05	53.1	53.1	53.1	79	46.8	0	0	---	0.00	30.102 
01:10	52.9	52.9	52.9	79	46.6	0	0	---	0.00	30.102 
01:15	52.9	52.9	52.9	79	46.6	0	0	---	0.00	30.098 
01:20	52.8	52.8	52.8	79	46.5	0	0	---	0.00	30.098 
01:25	52.8	52.8	52.8	80	46.8	0	0	---	0.00	30.098 
01:30	52.6	52.6	52.6	80	46.6	0	0	---	0.00	30.101 
01:35	52.5	52.5	52.5	80	46.5	0	0	---	0.00	30.101 
01:40	52.3	52.3	52.3	81	46.6	0	0	---	0.00	30.101 
01:45	52.2	52.2	52.2	81	46.5	0	0	---	0.00	30.100 
01:50	52.0	52.0	52.0	81	46.4	0	0	---	0.00	30.100 
01:55	51.7	51.7	51.7	82	46.4	0	0	---	0.00	30.100 
02:00	51.6	51.6	51.6	82	46.3	0	0	---	0.00	30.096 
02:05	51.3	51.3	51.3	83	46.3	0	0	---	0.00	30.096 
02:10	51.3	51.3	51.3	83	46.3	0	0	---	0.00	30.096 
02:15	51.1	51.1	51.1	84	46.4	0	0	---	0.00	30.093 
02:20	51.0	51.0	51.0	84	46.3	0	0	---	0.00	30.093 
02:25	51.0	51.0	51.0	85	46.7	0	0	---	0.00	30.093 
02:30	51.0	51.0	51.0	85	46.7	0	0	---	0.00	30.099 
02:35	51.1	51.1	51.1	85	46.7	0	0	---	0.00	30.099 
02:40	51.3	51.3	51.3	86	47.3	0	0	---	0.00	30.099 
02:45	51.3	51.3	51.3	86	47.3	0	0	---	0.00	30.088 
02:50	51.4	51.4	51.4	86	47.4	0	0	---	0.00	30.088 
02:55	51.6	51.6	51.6	86	47.5	0	0	---	0.00	30.088 
03:00	51.6	51.6	51.6	86	47.5	0	0	---	0.00	30.070 
03:05	51.6	51.6	51.6	86	47.5	0	0	---	0.00	30.070 
03:10	51.6	51.6	51.6	85	47.2	0	1	338	0.00	30.070 
03:15	51.6	51.6	51.6	86	47.5	0	1	338	0.00	30.056 
03:20	51.6	51.6	51.6	85	47.2	0	1	338	0.00	30.056 
03:25	51.7	51.7	51.7	85	47.3	0	1	338	0.00	30.056 
03:30	51.7	51.7	51.7	85	47.3	0	1	338	0.00	30.056 
03:35	51.9	51.9	51.9	84	47.2	0	0	---	0.00	30.056 
03:40	52.0	52.0	52.0	84	47.3	0	0	---	0.00	30.056 
03:45	52.0	52.0	52.0	84	47.3	0	3	68	0.00	30.059 
03:50	52.2	52.2	52.2	83	47.2	0	3	68	0.00	30.059 
03:55	52.2	52.2	52.2	83	47.2	0	1	68	0.00	30.059 
04:00	52.2	52.2	52.2	83	47.2	0	0	---	0.00	30.069 
04:05	52.0	52.0	52.0	82	46.7	0	2	68	0.00	30.069 
04:10	52.0	52.0	52.0	81	46.4	0	2	68	0.00	30.069 
04:15	51.9	51.9	51.9	81	46.3	0	2	68	0.00	30.072 
04:20	51.9	51.9	51.9	81	46.3	0	3	68	0.00	30.072 
04:25	51.9	51.9	51.9	81	46.3	0	1	68	0.00	30.072 
04:30	52.0	52.0	52.0	81	46.4	0	0	---	0.00	30.071 
04:35	52.0	52.0	52.0	81	46.4	0	0	---	0.00	30.071 
04:40	52.0	52.0	52.0	81	46.4	0	1	68	0.00	30.071 
04:45	52.2	52.2	52.2	81	46.5	0	0	---	0.00	30.069 
04:50	52.2	52.2	52.2	81	46.5	0	0	---	0.00	30.069 
04:55	52.2	52.2	52.2	80	46.2	0	1	68	0.00	30.069 
05:00	52.0	52.0	52.0	79	45.7	0	1	68	0.00	30.072 
05:05	52.2	52.2	52.2	80	46.2	0	1	68	0.00	30.072 
05:10	52.2	52.2	52.2	79	45.9	0	1	68	0.00	30.072 
05:15	52.0	52.0	52.0	78	45.4	0	1	68	0.00	30.072 
05:20	52.0	52.0	52.0	78	45.4	0	1	68	0.00	30.072 
05:25	52.0	52.0	52.0	77	45.0	0	0	---	0.00	30.072 
05:30	52.0	52.0	52.0	77	45.0	0	1	68	0.00	30.074 
05:35	52.0	52.0	52.0	77	45.0	0	1	68	0.00	30.074 
05:40	51.9	51.9	51.9	76	44.6	0	1	68	0.00	30.074 
05:45	52.0	52.0	52.0	76	44.7	0	1	68	0.00	30.080 
05:50	52.0	52.0	52.0	76	44.7	0	2	68	0.00	30.080 
05:55	52.0	52.0	52.0	76	44.7	0	0	---	0.00	30.080 
06:00	52.0	52.0	52.0	77	45.0	0	0	---	0.00	30.085 
06:05	51.9	51.9	51.9	77	44.9	0	1	68	0.00	30.085 
06:10	52.0	52.0	52.0	77	45.0	0	0	---	0.00	30.085 
06:15	51.9	51.9	51.9	77	44.9	0	3	68	0.00	30.089 
06:20	51.9	51.9	51.9	76	44.6	1	4	90	0.00	30.089 
06:25	52.0	52.0	52.0	76	44.7	0	3	90	0.00	30.089 
06:30	52.0	52.0	52.0	75	44.3	0	4	45	0.00	30.095 
06:35	52.0	52.0	52.0	74	44.0	0	2	112	0.00	30.095 
06:40	52.0	52.0	52.0	74	44.0	0	3	112	0.00	30.095 
06:45	52.0	52.0	52.0	74	44.0	0	2	112	0.00	30.105 
06:50	52.0	52.0	52.0	74	44.0	0	2	112	0.00	30.105 
06:55	51.9	51.9	51.9	73	43.5	0	4	90	0.00	30.105 
07:00	51.9	51.9	51.9	73	43.5	0	2	90	0.00	30.110 
07:05	51.9	51.9	51.9	74	43.9	0	1	90	0.00	30.110 
07:10	51.7	51.7	51.7	74	43.7	0	3	158	0.00	30.110 
07:15	51.6	51.6	51.6	75	43.9	0	1	158	0.00	30.123 
07:20	51.3	51.3	51.3	75	43.6	0	2	338	0.00	30.123 
07:25	51.0	51.0	51.0	76	43.7	0	2	338	0.00	30.123 
07:30	50.5	50.5	50.5	76	43.2	0	0	---	0.00	30.124 
07:35	50.2	50.2	50.2	77	43.3	0	1	338	0.00	30.124 
07:40	49.8	49.8	49.8	77	42.9	0	1	338	0.00	30.124 
07:45	49.5	49.5	49.5	78	42.9	0	4	135	0.00	30.128 
07:50	49.2	49.2	49.2	78	42.6	0	1	338	0.00	30.128 
07:55	49.1	49.1	49.1	79	42.9	0	1	338	0.00	30.128 
08:00	48.8	48.8	48.8	79	42.6	0	1	338	0.00	30.136 
08:05	48.8	48.8	48.8	79	42.6	0	1	338	0.00	30.136 
08:10	48.6	48.6	48.6	79	42.4	0	0	---	0.00	30.136 
08:15	48.6	48.6	48.6	79	42.4	0	0	---	0.00	30.139 
08:20	48.6	48.6	48.6	79	42.4	0	1	338	0.00	30.139 
08:25	48.5	48.5	48.5	79	42.3	0	1	338	0.00	30.139 
08:30	48.6	48.6	48.6	79	42.4	0	1	338	0.00	30.138 
08:35	48.8	48.8	48.8	79	42.6	0	2	202	0.00	30.138 
08:40	48.9	48.9	48.9	78	42.3	0	3	135	0.00	30.138 
08:45	49.1	49.1	49.1	77	42.2	0	2	158	0.00	30.140 
08:50	49.2	49.2	49.2	76	42.0	0	3	68	0.00	30.140 
08:55	49.4	49.4	49.4	76	42.2	0	4	90	0.00	30.140 
09:00	49.5	49.5	49.5	76	42.3	0	3	112	0.00	30.140 
09:05	49.6	49.6	49.6	76	42.3	1	3	90	0.00	30.140 
09:10	49.8	49.8	49.8	75	42.2	0	2	158	0.00	30.140 
09:15	49.8	49.8	49.8	74	41.9	0	1	45	0.00	30.139 
09:20	49.9	49.9	49.9	74	41.9	0	3	68	0.00	30.139 
09:25	50.2	50.2	50.2	74	42.2	0	3	112	0.00	30.139 
09:30	50.4	50.4	50.4	73	42.1	0	4	315	0.00	30.142 
09:35	50.7	50.7	50.7	73	42.4	1	4	112	0.00	30.142 
09:40	50.7	50.7	50.7	72	42.0	1	4	90	0.00	30.142 
09:45	50.7	50.7	50.7	71	41.6	0	2	90	0.00	30.142 
09:50	51.1	51.1	51.1	71	42.0	0	2	292	0.00	30.142 
09:55	51.4	51.4	51.4	70	41.9	1	4	112	0.00	30.142 
10:00	51.7	51.7	51.7	70	42.2	1	4	112	0.00	30.143 
10:05	51.9	51.9	51.9	69	42.1	1	4	112	0.00	30.143 
10:10	52.3	52.3	52.3	69	42.4	0	3	112	0.00	30.143 
10:15	52.9	52.9	52.9	66	41.9	2	5	112	0.00	30.143 
10:20	53.3	53.3	53.3	65	41.8	1	5	112	0.00	30.143 
10:25	53.9	53.9	53.9	63	41.6	1	4	112	0.00	30.143 
10:30	54.7	54.7	54.7	62	41.9	1	3	112	0.00	30.142 
10:35	55.0	55.0	55.0	62	42.2	0	1	112	0.00	30.142 
10:40	55.3	55.3	55.3	61	42.1	1	5	270	0.00	30.142 
10:45	55.9	55.9	55.9	60	42.2	1	5	90	0.00	30.140 
10:50	56.2	56.2	56.2	58	41.6	1	4	112	0.00	30.140 
10:55	56.5	56.5	56.5	58	41.9	1	5	112	0.00	30.140 
11:00	56.5	56.5	56.5	58	41.9	1	4	112	0.00	30.143 
11:05	56.7	56.7	56.7	58	42.1	1	5	90	0.00	30.143 
11:10	56.7	56.7	56.7	57	41.6	1	4	68	0.00	30.143 
11:15	56.9	56.9	56.9	57	41.8	1	3	112	0.00	30.140 
11:20	56.7	56.7	56.7	57	41.6	0	2	315	0.00	30.140 
11:25	56.7	56.7	56.7	57	41.6	0	3	315	0.00	30.140 
11:30	57.0	57.0	57.0	57	41.9	0	3	112	0.00	30.138 
11:35	57.5	57.5	57.5	55	41.5	0	1	112	0.00	30.138 
11:40	58.1	58.1	58.1	54	41.5	1	3	112	0.00	30.138 
11:45	57.8	57.8	57.8	54	41.3	0	2	0	0.00	30.131 
11:50	57.6	57.6	57.6	55	41.6	0	2	315	0.00	30.131 
11:55	58.4	58.4	58.4	55	42.3	1	4	112	0.00	30.131 
12:00	58.9	58.9	58.9	54	42.3	1	4	225	0.00	30.121 
12:05	59.3	59.3	59.3	53	42.2	1	6	112	0.00	30.121 
12:10	59.6	59.6	59.6	51	41.4	1	5	68	0.00	30.121 
12:15	59.9	59.9	59.9	51	41.7	1	4	68	0.00	30.123 
12:20	60.1	60.1	60.1	49	40.9	1	6	90	0.00	30.123 
12:25	59.8	59.8	59.8	50	41.1	2	4	112	0.00	30.123 
12:30	59.5	59.5	59.5	50	40.8	2	7	90	0.00	30.119 
12:35	59.9	59.9	59.9	51	41.7	0	3	90	0.00	30.119 
12:40	60.4	60.4	60.4	50	41.7	1	5	112	0.00	30.119 
12:45	60.5	60.5	60.5	48	40.7	1	4	90	0.00	30.113 
12:50	60.4	60.4	60.4	50	41.7	1	4	270	0.00	30.113 
12:55	60.5	60.5	60.5	48	40.7	1	5	90	0.00	30.113 
13:00	60.5	60.5	60.5	48	40.7	1	5	112	0.00	30.104 
13:05	61.0	61.0	61.0	48	41.2	1	4	68	0.00	30.104 
13:10	61.3	61.3	61.3	48	41.4	1	3	68	0.00	30.104 
13:15	61.3	61.3	61.3	47	40.9	0	3	0	0.00	30.105 
13:20	61.2	61.2	61.2	48	41.3	3	6	90	0.00	30.105 
13:25	60.9	60.9	60.9	47	40.5	1	5	112	0.00	30.105 
13:30	61.2	61.2	61.2	46	40.3	1	4	90	0.00	30.101 
13:35	61.3	61.3	61.3	47	40.9	1	3	90	0.00	30.101 
13:40	61.8	61.8	61.8	47	41.4	0	3	248	0.00	30.101 
13:45	61.8	61.8	61.8	46	40.8	0	2	0	0.00	30.091 
13:50	62.4	62.4	62.4	45	40.8	0	3	22	0.00	30.091 
13:55	62.6	62.6	62.6	44	40.4	1	4	90	0.00	30.091 
14:00	62.9	62.9	62.9	46	41.8	0	2	112	0.00	30.091 
14:05	62.7	62.7	62.7	44	40.5	0	3	68	0.00	30.091 
14:10	62.7	62.7	62.7	43	39.9	1	5	292	0.00	30.091 
14:15	62.6	62.6	62.6	43	39.8	1	4	292	0.00	30.088 
14:20	62.7	62.7	62.7	43	39.9	1	4	90	0.00	30.088 
14:25	62.4	62.4	62.4	46	41.3	2	9	90	0.00	30.088 
14:30	62.4	62.4	62.4	46	41.3	1	4	248	0.00	30.079 
14:35	62.9	62.9	62.9	44	40.6	1	5	90	0.00	30.079 
14:40	63.2	63.2	63.2	44	40.9	2	6	68	0.00	30.079 
14:45	63.2	63.2	63.2	43	40.3	1	3	315	0.00	30.073 
14:50	63.2	63.2	63.2	43	40.3	1	5	112	0.00	30.073 
14:55	63.5	63.5	63.5	44	41.2	0	2	90	0.00	30.073 
15:00	63.7	63.7	63.7	43	40.8	0	1	90	0.00	30.064 
15:05	63.7	63.7	63.7	40	38.9	2	4	112	0.00	30.064 
15:10	63.4	63.4	63.4	42	39.9	2	4	112	0.00	30.064 
15:15	63.2	63.2	63.2	43	40.3	1	3	90	0.00	30.066 
15:20	63.2	63.2	63.2	42	39.7	2	8	90	0.00	30.066 
15:25	62.9	62.9	62.9	43	40.1	1	4	112	0.00	30.066 
15:30	63.2	63.2	63.2	43	40.3	0	2	112	0.00	30.064 
15:35	63.2	63.2	63.2	44	40.9	3	7	112	0.00	30.064 
15:40	63.5	63.5	63.5	43	40.6	1	4	90	0.00	30.064 
15:45	63.7	63.7	63.7	41	39.6	2	9	90	0.00	30.056 
15:50	63.5	63.5	63.5	43	40.6	1	4	112	0.00	30.056 
15:55	63.5	63.5	63.5	42	40.0	2	5	90	0.00	30.056 
16:00	63.7	63.7	63.7	43	40.8	1	3	112	0.00	30.054 
16:05	64.2	64.2	64.2	44	41.8	0	1	315	0.00	30.054 
16:10	64.3	64.3	64.3	42	40.7	1	5	22	0.00	30.054 
16:15	63.9	63.9	63.9	43	41.0	2	6	112	0.00	30.055 
16:20	63.7	63.7	63.7	43	40.8	2	6	90	0.00	30.055 
16:25	63.5	63.5	63.5	43	40.6	2	6	90	0.00	30.055 
16:30	63.4	63.4	63.4	44	41.1	1	5	135	0.00	30.057 
16:35	63.4	63.4	63.4	44	41.1	1	4	90	0.00	30.057 
16:40	63.5	63.5	63.5	45	41.8	1	6	135	0.00	30.057 
16:45	63.5	63.5	63.5	45	41.8	1	5	135	0.00	30.053 
16:50	63.4	63.4	63.4	45	41.7	2	6	90	0.00	30.053 
16:55	63.4	63.4	63.4	45	41.7	1	5	112	0.00	30.053 
17:00	63.4	63.4	63.4	44	41.1	2	5	112	0.00	30.056 
17:05	63.1	63.1	63.1	46	42.0	2	7	90	0.00	30.056 
17:10	62.7	62.7	62.7	46	41.6	1	3	90	0.00	30.056 
17:15	62.3	62.3	62.3	46	41.3	0	3	135	0.00	30.057 
17:20	61.8	61.8	61.8	47	41.4	1	4	270	0.00	30.057 
17:25	62.0	62.0	62.0	47	41.5	1	5	0	0.00	30.057 
17:30	62.0	62.0	62.0	48	42.1	2	7	112	0.00	30.057 
17:35	62.0	62.0	62.0	47	41.5	1	7	112	0.00	30.057 
17:40	62.0	62.0	62.0	48	42.1	1	4	158	0.00	30.057 
17:45	61.8	61.8	61.8	48	41.9	1	6	90	0.00	30.057 
17:50	61.5	61.5	61.5	48	41.6	1	4	90	0.00	30.057 
17:55	61.3	61.3	61.3	48	41.4	1	5	112	0.00	30.057 
18:00	61.0	61.0	61.0	49	41.7	0	3	135	0.00	30.063 
18:05	60.7	60.7	60.7	49	41.4	1	5	135	0.00	30.063 
18:10	60.5	60.5	60.5	50	41.8	1	5	135	0.00	30.063 
18:15	60.2	60.2	60.2	50	41.5	1	6	135	0.00	30.062 
18:20	60.1	60.1	60.1	51	41.9	0	2	338	0.00	30.062 
18:25	59.9	59.9	59.9	51	41.7	1	5	135	0.00	30.062 
18:30	59.9	59.9	59.9	51	41.7	1	6	135	0.00	30.068 
18:35	59.8	59.8	59.8	52	42.1	1	3	158	0.00	30.068 
18:40	59.6	59.6	59.6	52	42.0	1	5	45	0.00	30.068 
18:45	59.5	59.5	59.5	52	41.9	1	3	68	0.00	30.070 
18:50	59.2	59.2	59.2	53	42.1	0	3	180	0.00	30.070 
18:55	59.0	59.0	59.0	53	41.9	1	4	90	0.00	30.070 
19:00	58.7	58.7	58.7	53	41.6	1	4	90	0.00	30.074 
19:05	58.6	58.6	58.6	54	42.0	1	5	90	0.00	30.074 
19:10	58.4	58.4	58.4	54	41.8	1	6	135	0.00	30.074 
19:15	58.1	58.1	58.1	54	41.5	1	6	90	0.00	30.079 
19:20	57.8	57.8	57.8	55	41.7	1	4	112	0.00	30.079 
19:25	57.5	57.5	57.5	56	41.9	0	3	112	0.00	30.079 
19:30	57.2	57.2	57.2	57	42.1	0	2	112	0.00	30.080 
19:35	56.9	56.9	56.9	57	41.8	0	3	135	0.00	30.080 
19:40	56.6	56.6	56.6	58	42.0	0	6	135	0.00	30.080 
19:45	56.3	56.3	56.3	58	41.7	0	3	45	0.00	30.080 
19:50	56.2	56.2	56.2	59	42.1	0	1	45	0.00	30.080 
19:55	55.9	55.9	55.9	60	42.2	0	1	112	0.00	30.080 
20:00	55.7	55.7	55.7	61	42.5	0	2	112	0.00	30.082 
20:05	55.4	55.4	55.4	61	42.2	0	3	112	0.00	30.082 
20:10	55.3	55.3	55.3	61	42.1	0	3	112	0.00	30.082 
20:15	55.1	55.1	55.1	61	41.9	0	3	112	0.00	30.085 
20:20	55.0	55.0	55.0	62	42.2	0	2	112	0.00	30.085 
20:25	54.8	54.8	54.8	62	42.0	0	2	135	0.00	30.085 
20:30	54.7	54.7	54.7	62	41.9	0	0	---	0.00	30.093 
20:35	54.5	54.5	54.5	62	41.7	0	1	135	0.00	30.093 
20:40	54.4	54.4	54.4	62	41.7	0	2	135	0.00	30.093 
20:45	54.2	54.2	54.2	63	41.9	0	2	90	0.00	30.090 
20:50	54.1	54.1	54.1	63	41.8	0	2	90	0.00	30.090 
20:55	54.1	54.1	54.1	63	41.8	1	5	90	0.00	30.090 
21:00	54.1	54.1	54.1	63	41.8	0	3	90	0.00	30.090 
21:05	53.9	53.9	53.9	63	41.6	0	0	---	0.00	30.090 
21:10	53.9	53.9	53.9	63	41.6	0	3	90	0.00	30.090 
21:15	53.8	53.8	53.8	64	41.9	0	2	90	0.00	30.087 
21:20	53.8	53.8	53.8	64	41.9	0	5	135	0.00	30.087 
21:25	53.8	53.8	53.8	64	41.9	0	4	112	0.00	30.087 
21:30	53.6	53.6	53.6	64	41.7	0	4	135	0.00	30.086 
21:35	53.6	53.6	53.6	64	41.7	1	6	68	0.00	30.086 
21:40	53.5	53.5	53.5	64	41.6	1	5	135	0.00	30.086 
21:45	53.5	53.5	53.5	65	42.0	1	3	135	0.00	30.091 
21:50	53.3	53.3	53.3	65	41.8	0	2	135	0.00	30.091 
21:55	53.3	53.3	53.3	65	41.8	1	5	90	0.00	30.091 
22:00	53.2	53.2	53.2	65	41.7	0	1	45	0.00	30.090 
22:05	53.1	53.1	53.1	65	41.6	1	4	45	0.00	30.090 
22:10	52.9	52.9	52.9	65	41.5	0	2	135	0.00	30.090 
22:15	52.9	52.9	52.9	65	41.5	0	2	135	0.00	30.083 
22:20	52.9	52.9	52.9	65	41.5	0	1	135	0.00	30.083 
22:25	52.8	52.8	52.8	66	41.8	0	3	135	0.00	30.083 
22:30	52.8	52.8	52.8	66	41.8	0	3	135	0.00	30.079 
22:35	52.8	52.8	52.8	66	41.8	0	2	135	0.00	30.079 
22:40	52.8	52.8	52.8	66	41.8	1	4	135	0.00	30.079 
22:45	52.8	52.8	52.8	66	41.8	0	2	135	0.00	30.078 
22:50	52.6	52.6	52.6	66	41.6	1	3	90	0.00	30.078 
22:55	52.6	52.6	52.6	66	41.6	0	2	90	0.00	30.078 
23:00	52.5	52.5	52.5	67	41.9	1	3	90	0.00	30.077 
23:05	52.5	52.5	52.5	67	41.9	0	2	90	0.00	30.077 
23:10	52.3	52.3	52.3	68	42.1	0	1	90	0.00	30.077 
23:15	52.2	52.2	52.2	68	42.0	0	3	90	0.00	30.075 
23:20	52.0	52.0	52.0	68	41.8	0	3	90	0.00	30.075 
23:25	51.9	51.9	51.9	69	42.1	0	4	90	0.00	30.075 
23:30	51.7	51.7	51.7	69	41.9	0	3	90	0.00	30.072 
23:35	51.7	51.7	51.7	70	42.2	0	1	90	0.00	30.072 
23:40	51.6	51.6	51.6	70	42.1	0	3	90	0.00	30.072 
23:45	51.4	51.4	51.4	70	41.9	0	1	90	0.00	30.072 
23:50	51.3	51.3	51.3	71	42.2	0	1	90	0.00	30.072 
23:55	51.1	51.1	51.1	72	42.4	0	2	90	0.00	30.072 

CoCoRaHS
IN-AL-39
A2 Web Hosting
Creative Commons License
GoDaddy
search engine by freefind advanced

loaded 2018-11-17 22:24:40 • last modified 2010-11-18 10:43:29
Privacy PolicyDisclaimer
• wx.awcolley.com is powered by PmWiki v.2002016 •
• all content (unless otherwise noted) © 2018 A W Colley